Terminal Aerodrome Forecast
Issued by NWS

Home | Current Version | Previous Version | Text Only | Print | Product List | Glossary On
Versions: 1 2 3 4 5 6 7 8 9 10 11 12 13 14
703
FTUS42 KMLB 200531
TAFISM
TAF
KISM 200531Z 2006/2106 36007KT P6SM SKC
     FM201600 07010KT P6SM SCT045
     FM210000 07006KT P6SM BKN045=

USA.gov is the U.S. government's official web portal to all federal, state and local government web resources and services.